createdAt,value
2022-09-16T00:02:18.908Z,20.00
2022-09-16T00:04:51.106Z,21.00
2022-09-16T00:07:23.119Z,20.70
2022-09-16T00:09:55.301Z,23.80
2022-09-16T00:12:27.346Z,23.00
2022-09-16T00:14:59.418Z,20.20
2022-09-16T00:17:31.774Z,23.90
2022-09-16T00:20:04.429Z,25.40
2022-09-16T00:22:37.583Z,25.10
2022-09-16T00:25:12.942Z,27.50
2022-09-16T00:27:48.569Z,25.60
2022-09-16T00:30:22.026Z,26.80
2022-09-16T00:32:57.534Z,22.80
2022-09-16T00:35:30.216Z,25.90
2022-09-16T00:38:03.817Z,23.80
2022-09-16T00:40:44.946Z,26.20
2022-09-16T00:43:21.410Z,25.20
2022-09-16T00:46:01.962Z,25.70
2022-09-16T00:48:37.714Z,24.90
2022-09-16T00:51:13.341Z,25.20
2022-09-16T00:53:54.397Z,26.90
2022-09-16T00:56:29.655Z,24.40
2022-09-16T00:59:09.287Z,28.10
2022-09-16T01:01:45.556Z,23.10
2022-09-16T01:04:21.441Z,21.50
2022-09-16T01:06:55.554Z,22.90
2022-09-16T01:09:29.338Z,20.30
2022-09-16T01:12:03.163Z,23.00
2022-09-16T01:14:53.120Z,20.00
2022-09-16T01:17:31.489Z,20.60
2022-09-16T01:20:29.328Z,20.20
2022-09-16T01:23:20.351Z,22.20
2022-09-16T01:26:06.146Z,19.40
2022-09-16T01:29:11.269Z,14.20
2022-09-16T01:31:47.129Z,12.80
2022-09-16T01:34:30.219Z,13.30
2022-09-16T01:37:07.929Z,12.40
2022-09-16T01:39:45.689Z,11.30
2022-09-16T01:42:28.365Z,11.80
2022-09-16T01:45:05.688Z,12.70
2022-09-16T01:47:41.273Z,11.90
2022-09-16T01:50:19.479Z,11.60
2022-09-16T01:53:03.975Z,12.10
2022-09-16T01:55:42.563Z,10.40
2022-09-16T01:58:18.866Z,14.20
2022-09-16T02:00:52.005Z,12.90
2022-09-16T02:03:28.347Z,15.20
2022-09-16T02:06:05.744Z,13.70
2022-09-16T02:08:42.025Z,15.90
2022-09-16T02:11:18.205Z,15.10
2022-09-16T02:13:55.394Z,17.50
2022-09-16T02:16:29.968Z,16.40
2022-09-16T02:19:03.825Z,15.90
2022-09-16T02:21:45.420Z,19.30
2022-09-16T02:24:21.217Z,17.80
2022-09-16T02:27:00.929Z,15.50
2022-09-16T02:29:44.263Z,17.70
2022-09-16T02:32:17.376Z,16.90
2022-09-16T02:34:50.605Z,21.70
2022-09-16T02:37:26.394Z,17.20
2022-09-16T02:40:02.331Z,17.30
2022-09-16T02:42:35.464Z,15.00
2022-09-16T02:45:11.280Z,14.30
2022-09-16T02:47:48.625Z,14.10
2022-09-16T02:50:27.291Z,13.10
2022-09-16T02:53:02.608Z,15.90
2022-09-16T02:55:40.949Z,14.30
2022-09-16T02:58:15.144Z,15.30
2022-09-16T03:00:49.683Z,15.00
2022-09-16T03:03:24.471Z,12.70
2022-09-16T03:06:18.547Z,16.90
2022-09-16T03:08:51.743Z,16.40
2022-09-16T03:11:48.107Z,14.80
2022-09-16T03:14:38.934Z,13.00
2022-09-16T03:17:22.062Z,12.10
2022-09-16T03:20:07.334Z,13.80
2022-09-16T03:22:50.359Z,16.70
2022-09-16T03:25:29.752Z,15.20
2022-09-16T03:28:09.255Z,16.70
2022-09-16T03:30:48.721Z,13.00
2022-09-16T03:33:28.380Z,15.50
2022-09-16T03:36:02.368Z,13.20
2022-09-16T03:38:36.881Z,11.70
2022-09-16T03:41:11.016Z,13.30
2022-09-16T03:43:44.045Z,16.30
2022-09-16T03:46:18.280Z,11.40
2022-09-16T03:48:52.459Z,11.40
2022-09-16T03:51:26.112Z,12.70
2022-09-16T03:53:58.644Z,10.50
2022-09-16T03:56:32.344Z,11.50
2022-09-16T03:59:04.842Z,11.90
2022-09-16T04:01:38.488Z,12.50
2022-09-16T04:04:13.430Z,11.90
2022-09-16T04:06:48.216Z,11.40
2022-09-16T04:09:23.013Z,11.80
2022-09-16T04:11:58.663Z,12.50
2022-09-16T04:14:31.248Z,10.50
2022-09-16T04:17:04.271Z,15.00
2022-09-16T04:19:36.306Z,12.60
2022-09-16T04:22:09.718Z,12.00
2022-09-16T04:24:42.609Z,15.80
2022-09-16T04:27:16.802Z,16.00
2022-09-16T04:29:49.264Z,15.30
2022-09-16T04:32:23.071Z,14.00
2022-09-16T04:35:01.279Z,12.20
2022-09-16T04:37:34.424Z,11.60
2022-09-16T04:40:09.551Z,13.10
2022-09-16T04:42:41.828Z,11.10
2022-09-16T04:45:14.675Z,13.50
2022-09-16T04:47:47.676Z,12.50
2022-09-16T04:50:20.081Z,11.90
2022-09-16T04:52:56.194Z,13.90
2022-09-16T04:55:30.196Z,11.30
2022-09-16T04:58:07.141Z,13.50
2022-09-16T05:00:43.327Z,15.20
2022-09-16T05:03:16.134Z,11.20
2022-09-16T05:05:49.651Z,10.30
2022-09-16T05:08:25.883Z,9.70
2022-09-16T05:11:03.316Z,13.70
2022-09-16T05:13:37.012Z,12.10
2022-09-16T05:16:12.180Z,16.80
2022-09-16T05:18:47.546Z,10.80
2022-09-16T05:21:21.196Z,12.20
2022-09-16T05:23:57.848Z,10.00
2022-09-16T05:26:32.849Z,9.80
2022-09-16T05:29:12.244Z,9.80
2022-09-16T05:31:47.576Z,9.00
2022-09-16T05:34:23.328Z,9.70
2022-09-16T05:36:57.249Z,7.60
2022-09-16T05:39:29.687Z,8.70
2022-09-16T05:42:05.968Z,9.40
2022-09-16T05:44:40.815Z,8.30
2022-09-16T05:47:17.025Z,11.20
2022-09-16T05:49:54.980Z,7.40
2022-09-16T05:52:30.190Z,10.10
2022-09-16T05:55:04.681Z,9.60
2022-09-16T05:57:38.037Z,9.80
2022-09-16T06:00:12.775Z,9.20
2022-09-16T06:02:47.555Z,8.70
2022-09-16T06:05:23.467Z,9.50
2022-09-16T06:07:59.790Z,9.70
2022-09-16T06:10:32.125Z,7.80
2022-09-16T06:13:05.328Z,8.20
2022-09-16T06:15:39.526Z,10.40
2022-09-16T06:18:16.034Z,12.10
2022-09-16T06:20:51.271Z,10.10
2022-09-16T06:23:25.771Z,11.20
2022-09-16T06:26:07.709Z,9.00
2022-09-16T06:28:41.009Z,8.90
2022-09-16T06:31:17.033Z,9.80
2022-09-16T06:33:52.682Z,11.40
2022-09-16T06:36:27.998Z,10.20
2022-09-16T06:39:00.702Z,9.00
2022-09-16T06:41:34.689Z,11.00
2022-09-16T06:44:07.146Z,8.60
2022-09-16T06:46:42.784Z,8.30
2022-09-16T06:49:14.918Z,9.00
2022-09-16T06:51:48.254Z,9.20
2022-09-16T06:54:21.199Z,8.10
2022-09-16T06:56:54.903Z,9.60
2022-09-16T06:59:29.161Z,9.00
2022-09-16T07:02:02.658Z,10.20
2022-09-16T07:04:35.617Z,9.60
2022-09-16T07:07:10.876Z,9.00
2022-09-16T07:09:43.165Z,8.20
2022-09-16T07:12:19.755Z,10.50
2022-09-16T07:14:53.192Z,9.90
2022-09-16T07:17:27.326Z,8.70
2022-09-16T07:19:59.156Z,9.60
2022-09-16T07:22:34.847Z,8.00
2022-09-16T07:25:09.015Z,7.50
2022-09-16T07:27:41.338Z,8.30
2022-09-16T07:30:15.703Z,7.60
2022-09-16T07:32:47.696Z,7.40
2022-09-16T07:35:22.010Z,8.50
2022-09-16T07:37:54.066Z,7.80
2022-09-16T07:40:29.767Z,9.00
2022-09-16T07:43:01.831Z,9.80
2022-09-16T07:45:34.441Z,8.30
2022-09-16T07:48:07.989Z,9.10
2022-09-16T07:50:41.679Z,9.00
2022-09-16T07:53:13.960Z,10.00
2022-09-16T07:55:47.108Z,9.10
2022-09-16T07:58:20.752Z,8.40
2022-09-16T08:00:53.321Z,10.30
2022-09-16T08:03:25.473Z,8.60
2022-09-16T08:06:02.699Z,12.60
2022-09-16T08:08:35.290Z,9.90
2022-09-16T08:11:09.794Z,13.60
2022-09-16T08:13:42.223Z,10.20
2022-09-16T08:16:16.022Z,9.60
2022-09-16T08:18:49.726Z,10.30
2022-09-16T08:21:25.115Z,9.90
2022-09-16T08:23:57.589Z,11.70
2022-09-16T08:26:31.316Z,9.40
2022-09-16T08:29:08.813Z,10.20
2022-09-16T08:31:42.562Z,11.20
2022-09-16T08:34:16.474Z,8.80
2022-09-16T08:36:48.279Z,8.70
2022-09-16T08:39:22.407Z,8.10
2022-09-16T08:42:33.442Z,7.00
2022-09-16T08:45:16.490Z,6.70
2022-09-16T08:48:01.362Z,9.30
2022-09-16T08:50:37.465Z,8.00
2022-09-16T08:53:16.642Z,6.80
2022-09-16T08:55:50.793Z,7.40
2022-09-16T08:58:26.697Z,8.20
2022-09-16T09:01:02.769Z,7.60
2022-09-16T09:03:38.837Z,8.20
2022-09-16T09:06:19.896Z,9.00
2022-09-16T09:09:04.291Z,11.20
2022-09-16T09:11:42.090Z,8.70
2022-09-16T09:14:29.607Z,9.90
2022-09-16T09:17:08.850Z,14.20
2022-09-16T09:19:51.859Z,14.00
2022-09-16T09:22:45.572Z,14.40
2022-09-16T09:25:36.312Z,13.70
2022-09-16T09:28:21.442Z,12.00
2022-09-16T09:31:00.799Z,10.00
2022-09-16T09:33:46.536Z,7.20
2022-09-16T09:36:40.945Z,8.20
2022-09-16T09:39:38.386Z,7.10
2022-09-16T09:42:15.733Z,7.60
2022-09-16T09:45:03.184Z,8.00
2022-09-16T09:47:40.753Z,7.50
2022-09-16T09:50:19.220Z,8.30
2022-09-16T09:52:57.579Z,10.10
2022-09-16T09:55:33.066Z,7.90
2022-09-16T09:58:21.266Z,10.00
2022-09-16T10:00:56.375Z,8.80
2022-09-16T10:03:30.979Z,8.10
2022-09-16T10:06:04.440Z,6.10
2022-09-16T10:08:42.875Z,5.10
2022-09-16T10:11:21.821Z,4.60
2022-09-16T10:13:55.922Z,4.50
2022-09-16T10:16:32.458Z,4.70
2022-09-16T10:19:10.501Z,5.90
2022-09-16T10:21:48.698Z,5.40
2022-09-16T10:24:42.307Z,3.30
2022-09-16T10:27:27.291Z,4.40
2022-09-16T10:30:15.429Z,4.20
2022-09-16T10:32:56.411Z,3.10
2022-09-16T10:35:30.486Z,3.90
2022-09-16T10:38:08.089Z,3.20
2022-09-16T10:40:41.274Z,3.20
2022-09-16T10:43:18.778Z,3.00
2022-09-16T10:45:53.041Z,5.30
2022-09-16T10:48:28.620Z,3.60
2022-09-16T10:51:02.555Z,5.40
2022-09-16T10:53:39.656Z,4.70
2022-09-16T10:56:22.873Z,4.30
2022-09-16T10:59:10.623Z,4.00
2022-09-16T11:01:51.147Z,3.90
2022-09-16T11:04:46.027Z,4.00
2022-09-16T11:07:33.383Z,4.60
2022-09-16T11:10:16.411Z,5.60
2022-09-16T11:13:16.208Z,6.40
2022-09-16T11:16:04.031Z,6.10
2022-09-16T11:18:57.122Z,5.60
2022-09-16T11:21:39.809Z,4.70
2022-09-16T11:24:23.040Z,4.00
2022-09-16T11:27:01.058Z,6.40
2022-09-16T11:29:53.789Z,4.20
2022-09-16T11:32:36.289Z,4.70
2022-09-16T11:35:27.476Z,6.00
2022-09-16T11:38:05.380Z,5.20
2022-09-16T11:40:52.050Z,3.80
2022-09-16T11:43:48.473Z,5.50
2022-09-16T11:46:27.418Z,4.10
2022-09-16T11:49:14.995Z,4.30
2022-09-16T11:52:02.303Z,4.70
2022-09-16T11:54:48.251Z,4.60
2022-09-16T11:57:22.226Z,6.50
2022-09-16T11:59:59.154Z,7.10
2022-09-16T12:02:37.282Z,5.70
2022-09-16T12:05:19.495Z,6.00
2022-09-16T12:07:56.859Z,6.20
2022-09-16T12:10:38.578Z,4.30
2022-09-16T12:13:17.031Z,3.60
2022-09-16T12:15:52.395Z,4.00
2022-09-16T12:18:28.340Z,5.30
2022-09-16T12:21:07.878Z,6.10
2022-09-16T12:23:44.727Z,3.50
2022-09-16T12:26:21.847Z,3.80
2022-09-16T12:29:00.859Z,4.00
2022-09-16T12:31:38.109Z,3.80
2022-09-16T12:34:15.641Z,5.40
2022-09-16T12:36:51.186Z,3.50
2022-09-16T12:39:25.059Z,3.10
2022-09-16T12:42:17.699Z,3.10
2022-09-16T12:45:07.211Z,3.20
2022-09-16T12:47:59.471Z,3.90
2022-09-16T12:51:01.721Z,3.40
2022-09-16T12:53:54.091Z,4.40
2022-09-16T12:56:40.527Z,3.10
2022-09-16T12:59:34.994Z,3.20
2022-09-16T13:02:17.351Z,2.80
2022-09-16T13:04:51.803Z,4.30
2022-09-16T13:07:28.668Z,2.90
2022-09-16T13:10:07.278Z,3.80
2022-09-16T13:12:43.950Z,3.40
2022-09-16T13:15:28.536Z,2.80
2022-09-16T13:18:11.959Z,2.60
2022-09-16T13:20:49.360Z,3.00
2022-09-16T13:23:24.941Z,5.50
2022-09-16T13:26:04.277Z,5.80
2022-09-16T13:28:41.499Z,7.60
2022-09-16T13:31:34.310Z,7.10
2022-09-16T13:34:19.200Z,7.00
2022-09-16T13:36:52.367Z,7.00
2022-09-16T13:39:36.085Z,5.50
2022-09-16T13:42:21.676Z,5.50
2022-09-16T13:44:56.039Z,5.70
2022-09-16T13:47:41.833Z,6.20
2022-09-16T13:50:18.258Z,5.80
2022-09-16T13:52:50.786Z,4.10
2022-09-16T13:55:25.783Z,7.40
2022-09-16T13:58:03.484Z,8.10
2022-09-16T14:00:42.341Z,5.90
2022-09-16T14:03:29.186Z,7.70
2022-09-16T14:06:23.124Z,17.80
2022-09-16T14:09:03.298Z,10.50
2022-09-16T14:11:39.973Z,5.00
2022-09-16T14:14:30.086Z,11.20
2022-09-16T14:17:17.585Z,8.90
2022-09-16T14:19:52.522Z,7.10
2022-09-16T14:22:27.669Z,6.50
2022-09-16T14:25:26.235Z,4.60
2022-09-16T14:28:07.403Z,5.00
2022-09-16T14:30:46.459Z,7.10
2022-09-16T14:33:21.567Z,4.50
2022-09-16T14:35:56.841Z,4.20
2022-09-16T14:38:45.664Z,4.90
2022-09-16T14:41:25.693Z,6.50
2022-09-16T14:44:05.576Z,6.70
2022-09-16T14:46:46.308Z,5.70
2022-09-16T14:49:20.749Z,5.60
2022-09-16T14:51:55.354Z,5.10
2022-09-16T14:54:29.414Z,5.80
2022-09-16T14:57:06.582Z,4.30
2022-09-16T14:59:42.869Z,7.20
2022-09-16T15:02:23.840Z,4.30
2022-09-16T15:05:03.086Z,5.50
2022-09-16T15:07:50.635Z,10.50
2022-09-16T15:10:39.710Z,4.60
2022-09-16T15:13:25.946Z,6.50
2022-09-16T15:16:04.656Z,4.10
2022-09-16T15:18:41.260Z,5.90
2022-09-16T15:21:21.172Z,6.80
2022-09-16T15:23:56.905Z,5.40
2022-09-16T15:26:33.189Z,6.30
2022-09-16T15:29:08.304Z,6.20
2022-09-16T15:31:44.973Z,5.20
2022-09-16T15:34:24.913Z,4.60
2022-09-16T15:36:59.101Z,8.40
2022-09-16T15:39:35.878Z,6.10
2022-09-16T15:42:15.730Z,6.20
2022-09-16T15:44:53.792Z,7.80
2022-09-16T15:47:30.105Z,10.10
2022-09-16T15:50:04.664Z,5.60
2022-09-16T15:52:52.858Z,6.70
2022-09-16T15:55:33.649Z,6.10
2022-09-16T15:58:12.055Z,6.20
2022-09-16T16:01:07.927Z,5.20
2022-09-16T16:03:50.413Z,6.80
2022-09-16T16:06:23.652Z,8.90
2022-09-16T16:08:58.197Z,6.70
2022-09-16T16:11:31.354Z,7.00
2022-09-16T16:14:06.118Z,7.70
2022-09-16T16:17:01.566Z,9.10
2022-09-16T16:20:23.241Z,7.80
2022-09-16T16:22:58.615Z,7.80
2022-09-16T16:25:38.128Z,10.90
2022-09-16T16:28:12.345Z,12.70
2022-09-16T16:30:52.096Z,9.60
2022-09-16T16:33:25.692Z,10.70
2022-09-16T16:36:23.508Z,9.30
2022-09-16T16:39:00.109Z,9.60
2022-09-16T16:41:37.629Z,8.30
2022-09-16T16:44:12.874Z,10.90
2022-09-16T16:46:50.597Z,12.30
2022-09-16T16:49:27.717Z,9.80
2022-09-16T16:55:10.464Z,11.80
2022-09-16T16:57:46.066Z,13.30
2022-09-16T17:04:02.475Z,8.90
2022-09-16T17:07:02.680Z,8.00
2022-09-16T17:09:51.121Z,21.20
2022-09-16T17:13:11.279Z,53.00
2022-09-16T17:15:49.987Z,18.20
2022-09-16T17:18:27.541Z,11.40
2022-09-16T17:21:11.522Z,11.20
2022-09-16T17:23:55.155Z,9.20
2022-09-16T17:26:29.694Z,11.50
2022-09-16T17:29:36.250Z,11.70
2022-09-16T17:32:19.012Z,11.60
2022-09-16T17:34:53.271Z,11.60
2022-09-16T17:37:25.619Z,12.80
2022-09-16T17:40:10.181Z,16.10
2022-09-16T17:42:48.103Z,15.20
2022-09-16T17:46:12.299Z,14.70
2022-09-16T17:49:14.760Z,13.90
2022-09-16T17:52:12.754Z,11.00
2022-09-16T17:54:48.112Z,12.60
2022-09-16T18:00:58.386Z,12.30
2022-09-16T18:03:46.181Z,12.20
2022-09-16T18:09:30.141Z,13.30
2022-09-16T18:12:16.097Z,17.00
2022-09-16T18:14:51.390Z,14.20
2022-09-16T18:17:29.925Z,13.30
2022-09-16T18:20:07.405Z,12.50
2022-09-16T18:22:46.440Z,13.90
2022-09-16T18:25:22.521Z,13.50
2022-09-16T18:28:00.773Z,13.50
2022-09-16T18:31:01.588Z,14.20
2022-09-16T18:33:43.542Z,11.30
2022-09-16T18:37:11.755Z,11.50
2022-09-16T18:39:49.242Z,14.90
2022-09-16T18:42:22.394Z,11.50
2022-09-16T18:44:57.172Z,10.90
2022-09-16T18:47:34.114Z,15.10
2022-09-16T18:50:10.221Z,14.80
2022-09-16T18:53:17.195Z,13.80
2022-09-16T18:55:52.092Z,13.40
2022-09-16T18:59:19.473Z,13.50
2022-09-16T19:01:56.185Z,13.90
2022-09-16T19:04:39.496Z,11.40
2022-09-16T19:07:19.472Z,21.10
2022-09-16T19:09:52.070Z,19.10
2022-09-16T19:12:39.274Z,13.30
2022-09-16T19:15:39.727Z,10.90
2022-09-16T19:18:15.242Z,10.60
2022-09-16T19:20:52.879Z,11.70
2022-09-16T19:23:27.885Z,11.50
2022-09-16T19:26:10.888Z,10.80
2022-09-16T19:32:06.926Z,13.40
2022-09-16T19:34:51.111Z,13.90
2022-09-16T19:38:12.350Z,14.20
2022-09-16T19:40:49.051Z,14.70
2022-09-16T19:43:26.542Z,13.50
2022-09-16T19:46:12.217Z,14.70
2022-09-16T19:48:49.331Z,12.40
2022-09-16T19:51:51.485Z,15.30
2022-09-16T19:54:37.179Z,14.60
2022-09-16T19:57:16.686Z,12.50
2022-09-16T20:03:16.509Z,14.80
2022-09-16T20:06:13.549Z,16.20
2022-09-16T20:08:50.321Z,14.30
2022-09-16T20:11:29.758Z,16.60
2022-09-16T20:14:34.465Z,14.70
2022-09-16T20:17:33.196Z,13.90
2022-09-16T20:20:08.731Z,15.30
2022-09-16T20:22:43.859Z,15.30
2022-09-16T20:25:49.451Z,12.80
2022-09-16T20:28:23.593Z,14.60
2022-09-16T20:31:24.712Z,15.20
2022-09-16T20:34:12.052Z,16.30
2022-09-16T20:37:11.551Z,15.00
2022-09-16T20:39:48.327Z,17.90
2022-09-16T20:42:47.050Z,14.90
2022-09-16T20:45:49.452Z,18.20
2022-09-16T20:48:28.831Z,17.30
2022-09-16T20:51:07.462Z,15.00
2022-09-16T20:53:45.236Z,19.10
2022-09-16T20:59:25.809Z,18.00
2022-09-16T21:02:02.934Z,16.20
2022-09-16T21:04:37.213Z,17.80
2022-09-16T21:07:09.998Z,18.90
2022-09-16T21:09:43.670Z,18.30
2022-09-16T21:13:07.558Z,18.20
2022-09-16T21:15:45.208Z,18.70
2022-09-16T21:19:10.575Z,17.80
2022-09-16T21:25:16.083Z,18.10
2022-09-16T21:28:37.638Z,21.00
2022-09-16T21:31:18.450Z,19.10
2022-09-16T21:33:58.941Z,20.60
2022-09-16T21:36:32.271Z,17.60
2022-09-16T21:39:28.817Z,20.30
2022-09-16T21:42:00.571Z,19.00
2022-09-16T21:44:35.035Z,19.60
2022-09-16T21:47:12.191Z,18.80
2022-09-16T21:49:44.271Z,21.20
2022-09-16T21:52:17.521Z,29.50
2022-09-16T21:54:49.648Z,30.50
2022-09-16T21:57:21.535Z,27.40
2022-09-16T21:59:55.503Z,27.30
2022-09-16T22:02:29.286Z,24.20
2022-09-16T22:05:02.556Z,19.80
2022-09-16T22:07:34.469Z,22.80
2022-09-16T22:10:07.684Z,23.30
2022-09-16T22:12:40.352Z,21.50
2022-09-16T22:15:13.482Z,23.90
2022-09-16T22:17:51.909Z,23.30
2022-09-16T22:20:25.410Z,21.80
2022-09-16T22:22:57.530Z,23.80
2022-09-16T22:25:29.479Z,22.50
2022-09-16T22:28:02.884Z,22.90
2022-09-16T22:30:36.728Z,24.90
2022-09-16T22:33:09.529Z,23.90
2022-09-16T22:35:42.296Z,24.20
2022-09-16T22:38:14.207Z,23.00
2022-09-16T22:40:48.723Z,22.50
2022-09-16T22:43:20.930Z,25.60
2022-09-16T22:45:52.900Z,23.30
2022-09-16T22:48:24.794Z,20.50
2022-09-16T22:51:02.650Z,20.40
2022-09-16T22:53:36.489Z,21.10
2022-09-16T22:56:12.187Z,21.50
2022-09-16T22:58:44.758Z,18.60
2022-09-16T23:01:20.034Z,19.50
2022-09-16T23:03:57.230Z,20.70
2022-09-16T23:06:32.814Z,21.40
2022-09-16T23:09:05.036Z,22.50
2022-09-16T23:11:38.581Z,20.10
2022-09-16T23:14:11.489Z,21.20
2022-09-16T23:16:43.584Z,21.60
2022-09-16T23:19:17.192Z,20.80
2022-09-16T23:21:51.205Z,23.00
2022-09-16T23:24:24.566Z,23.10
2022-09-16T23:26:57.062Z,20.30
2022-09-16T23:29:28.992Z,24.60
2022-09-16T23:32:03.963Z,21.60
2022-09-16T23:34:38.002Z,20.50
2022-09-16T23:37:10.364Z,20.90
2022-09-16T23:39:43.903Z,19.80
2022-09-16T23:42:17.013Z,19.00
2022-09-16T23:44:49.418Z,18.60
2022-09-16T23:47:23.386Z,20.10
2022-09-16T23:49:55.374Z,16.80
2022-09-16T23:52:27.304Z,18.00
2022-09-16T23:55:00.383Z,16.70
2022-09-16T23:57:38.076Z,16.40
